Pensacola Naval Air Station,Forrest Sherman field Pensacola US
ICAO: KNPA
IATA: NPA
Category: Medium
Scheduled Services: No

Elevation: 28 ft
TransAlt. 18000 ft.

Airport Communications:
APP:120.05
ATIS:26.76
SHERMAN CLNC DEL:134.1
DEP:120.65
SHERMAN GND:121.7
SHERMAN BASE OPS:31.21
PMSV METRO:35.96
SHERMAN TWR:120.7

KNPA Zoom In..

If Map Doesn't Load, Click Here

Runways:

(A) RW 01 length 7137 ft width 200 ft
---- / hdg 7

(B) RW 07L length 8002 ft width 200 ft
ILS 109.30 / hdg 70

(C) RW 07R length 8001 ft width 200 ft
---- / hdg 69

(D) RW 19 length 7137 ft width 200 ft
---- / hdg 187

(E) RW 25L length 8001 ft width 200 ft
---- / hdg 249

(F) RW 25R length 8002 ft width 200 ft
---- / hdg 250

Location; KNPA
Day. 21 / Time. 14.56 Zulu
* Altimeter: 30.08
* Temperature: 29° c. 84.2°f.
* Wind from: 040° Speed 06 kn.
Dewpoint: 26° c.
Visibility: 10 Statute Miles.
Clouds: Few 2000 ft.
Clouds: Broken 12000 ft.
Clouds: Broken 25000 ft.

KNPA 211456Z 04006KT 10SM FEW020 BKN120 BKN250 29/26 A3008 RMK SLP189 T02940256 51007


Wind From 040°
Speed 06 kn.

 
 
jpsmedia.com for Web Design worldairports.se 2018   terms of use